• Join FlightAware (Why Join?)
  • Login
  • US Flag 
09:41PM EDT


 

Airport Tracker/Info


-or-


 

Live Flight TrackerFlight Track Log ✈ UAL495 ✈ 16-Jun-2013 ✈ KDEN - KIAD

Flight Track Log - Related Links

Times and Time Zones

All times are in EDT time to prevent confusion due to time zone crossing. See the UAL495 flight status page for this flight to view local times or setup timezone preferences in your user account.

Time Position Orientation Groundspeed Altitude Reporting Facility
EDT Latitude Longitude Course Direction KTS MPH feet Rate Location/Type
12:46PM 39.8167 -104.6333 75° East 199 229 6,800  Level Denver TRACON
12:47PM 39.8333 -104.5500 75° East 232 267 8,100 1,500 Climbing Denver TRACON
12:48PM 39.8511 -104.5078 61° Northeast 246 283 9,300 1,920 Climbing Denver Center
12:49PM 39.8608 -104.4000 83° East 280 322 11,400 1,680 Climbing Denver Center
12:50PM 39.8639 -104.2819 88° East 327 376 12,800 1,680 Climbing Denver Center
12:51PM 39.8692 -104.1486 87° East 364 419 14,900 2,220 Climbing Denver Center
12:52PM 39.8744 -104.0003 87° East 381 438 17,500 2,220 Climbing Denver Center
12:53PM 39.8781 -103.8572 88° East 398 458 19,500 1,920 Climbing Denver Center
12:54PM 39.8858 -103.6978 86° East 402 463 21,500 1,740 Climbing Denver Center
12:55PM 39.9039 -103.5467 81° East 419 482 23,200 1,560 Climbing Denver Center
12:56PM 39.9225 -103.3867 81° East 442 509 24,800 1,440 Climbing Denver Center
12:57PM 39.9417 -103.2228 81° East 457 526 26,200 1,260 Climbing Denver Center
12:58PM 39.9606 -103.0528 82° East 472 543 27,500 1,200 Climbing Denver Center
12:59PM 39.9792 -102.8772 82° East 486 559 28,700 1,260 Climbing Denver Center
01:00PM 40.0006 -102.6694 82° East 500 575 30,200 1,440 Climbing Denver Center
01:01PM 40.0314 -102.5000 77° East 504 580 31,700 1,140 Climbing Denver Center
01:02PM 40.0689 -102.3036 76° East 501 577 32,600 600 Climbing Denver Center
01:03PM 40.0989 -102.1297 77° East 512 589 33,000 180 Climbing Denver Center
01:04PM 40.1331 -101.9289 77° East 509 586 33,000  Level Denver Center
01:05PM 40.1625 -101.7558 77° East 510 587 33,000 240 Level Denver Center
01:06PM 40.1975 -101.5531 77° East 513 590 33,500 480 Climbing Denver Center
01:07PM 40.2261 -101.3789 78° East 514 592 34,000 240 Climbing Denver Center
01:08PM 40.2617 -101.1739 77° East 519 597 34,000  Level Denver Center
01:09PM 40.2906 -100.9983 78° East 518 596 34,000  Level Denver Center
01:10PM 40.3258 -100.7922 77° East 522 601 34,000  Level Denver Center
01:11PM 40.3547 -100.6167 78° East 520 598 34,000  Level Denver Center
01:12PM 40.3878 -100.4103 78° East 523 602 34,100 240 Climbing Denver Center
01:13PM 40.4119 -100.2661 78° East 516 594 34,600 420 Climbing Denver Center
01:15PM 40.4494 -100.0347 78° East 510 587 35,000 180 Climbing Denver Center
01:16PM 40.4783 -99.8586 78° East 513 590 35,000  Level Denver Center
01:17PM 40.5058 -99.6778 79° East 508 585 35,000  Level Denver Center
01:18PM 40.5281 -99.5342 78° East 504 580 35,000  Level Denver Center
01:19PM 40.5664 -99.2817 79° East 504 580 35,000  Level Denver Center
01:19PM 40.5722 -99.2472 77° East 504 580 35,000  Level Minneapolis Center
01:20PM 40.5983 -99.0681 79° East 503 579 35,000  Level Minneapolis Center
01:21PM 40.6258 -98.8889 79° East 503 579 35,000  Level Minneapolis Center
01:22PM 40.6572 -98.6736 79° East 503 579 35,000  Level Minneapolis Center
01:23PM 40.6831 -98.4928 79° East 506 582 35,000  Level Minneapolis Center
01:24PM 40.7097 -98.3106 79° East 508 585 35,000  Level Minneapolis Center
01:25PM 40.7361 -98.1281 79° East 510 587 35,000  Level Minneapolis Center
01:26PM 40.7617 -97.9439 80° East 512 589 35,000  Level Minneapolis Center
01:27PM 40.7919 -97.7244 80° East 510 587 35,000  Level Minneapolis Center
01:28PM 40.8175 -97.5411 80° East 510 587 35,000  Level Minneapolis Center
01:29PM 40.8486 -97.3092 80° East 509 586 35,000  Level Minneapolis Center
01:31PM 40.8733 -97.1250 80° East 510 587 35,000  Level Minneapolis Center
01:32PM 40.8981 -96.9433 80° East 507 583 35,000  Level Minneapolis Center
01:33PM 40.9217 -96.7614 80° East 505 581 35,000  Level Minneapolis Center
01:34PM 40.9367 -96.5783 84° East 504 580 35,000  Level Minneapolis Center
01:35PM 40.9442 -96.3950 87° East 503 579 35,000  Level Minneapolis Center
01:36PM 40.9572 -96.1750 85° East 504 580 35,000  Level Minneapolis Center
01:37PM 40.9694 -95.9911 85° East 507 583 35,000  Level Minneapolis Center
01:38PM 40.9803 -95.8061 86° East 510 587 35,000  Level Minneapolis Center
01:39PM 40.9906 -95.6200 86° East 512 589 35,000  Level Minneapolis Center
01:40PM 41.0031 -95.3925 86° East 517 595 35,000  Level Minneapolis Center
01:41PM 41.0128 -95.2044 86° East 516 594 35,000  Level Minneapolis Center
01:42PM 41.0214 -95.0178 86° East 513 590 35,000  Level Minneapolis Center
01:43PM 41.0306 -94.8286 86° East 514 592 35,000  Level Minneapolis Center
01:44PM 41.0392 -94.6394 86° East 516 594 35,000  Level Minneapolis Center
01:45PM 41.0475 -94.4461 87° East 515 593 35,000  Level Minneapolis Center
01:46PM 41.0542 -94.2564 87° East 518 596 35,000  Level Minneapolis Center
01:47PM 41.0642 -94.0289 87° East 519 597 35,000  Level Minneapolis Center
01:48PM 41.0711 -93.8375 87° East 521 600 35,000  Level Minneapolis Center
01:49PM 41.0800 -93.6442 86° East 524 603 35,000  Level Minneapolis Center
01:50PM 41.0867 -93.4544 87° East 523 602 35,000  Level Minneapolis Center
01:51PM 41.0944 -93.2614 87° East 524 603 35,000  Level Minneapolis Center
01:52PM 41.1008 -93.0311 88° East 524 603 35,000  Level Minneapolis Center
01:53PM 41.1078 -92.8383 87° East 524 603 35,000  Level Minneapolis Center
01:54PM 41.1131 -92.6469 88° East 522 601 35,000  Level Chicago Center
01:55PM 41.1186 -92.4569 88° East 519 597 35,000  Level Chicago Center
01:56PM 41.1231 -92.2664 88° East 519 597 35,000  Level Chicago Center
01:57PM 41.1281 -92.0425 88° East 511 588 35,000  Level Chicago Center
01:58PM 41.1336 -91.8539 88° East 513 590 35,000  Level Chicago Center
02:00PM 41.1367 -91.6647 89° East 516 594 35,000  Level Chicago Center
02:01PM 41.1408 -91.4778 88° East 515 593 35,000  Level Chicago Center
02:02PM 41.1444 -91.2869 88° East 515 593 35,000  Level Chicago Center
02:03PM 41.1481 -91.0583 89° East 517 595 35,000  Level Chicago Center
02:04PM 41.1508 -90.8664 89° East 519 597 35,000  Level Chicago Center
02:05PM 41.1531 -90.6756 89° East 516 594 35,000  Level Chicago Center
02:06PM 41.1558 -90.4831 89° East 520 598 35,000  Level Chicago Center
02:07PM 41.1572 -90.2928 89° East 516 594 35,000  Level Chicago Center
02:08PM 41.1583 -90.0997 89° East 518 596 35,000  Level Chicago Center
02:09PM 41.1597 -89.9086 89° East 514 592 35,000  Level Chicago Center
02:10PM 41.1611 -89.7150 89° East 517 595 35,000  Level Chicago Center
02:11PM 41.1469 -89.4864 95° East 511 588 35,000  Level Chicago Center
02:12PM 41.1214 -89.2981 100° East 515 593 35,000  Level Chicago Center
02:13PM 41.0986 -89.1286 100° East 511 588 35,000  Level Chicago Center
02:14PM 41.0731 -88.9456 100° East 510 587 35,000  Level Chicago Center
02:15PM 41.0417 -88.7258 101° East 513 590 35,000  Level Chicago Center
02:16PM 41.0167 -88.5436 100° East 510 587 35,000  Level Chicago Center
02:17PM 40.9911 -88.3633 101° East 507 583 35,000  Level Chicago Center
02:18PM 40.9650 -88.1806 101° East 514 592 35,000  Level Chicago Center
02:19PM 40.9333 -87.9606 101° East 515 593 35,000  Level Chicago Center
02:20PM 40.9058 -87.7781 101° East 515 593 35,000  Level Chicago Center
02:21PM 40.8794 -87.5961 101° East 513 590 35,000  Level Chicago Center
02:22PM 40.8528 -87.4122 101° East 512 589 35,000 300 Level Chicago Center
02:23PM 40.8233 -87.2325 102° East 508 585 35,700 960 Climbing Chicago Center
02:24PM 40.7886 -87.0125 102° East 512 589 37,000 600 Climbing Chicago Center
02:25PM 40.7603 -86.8297 102° East 512 589 37,000  Level Chicago Center
02:26PM 40.7317 -86.6464 102° East 514 592 37,000  Level Chicago Center
02:27PM 40.7017 -86.4581 102° East 522 601 37,000  Level Chicago Center
02:28PM 40.6714 -86.2572 101° East 522 601 37,000  Level Chicago Center
02:29PM 40.6403 -86.0678 102° East 525 604 37,000  Level Chicago Center
02:31PM 40.6100 -85.8803 102° East 524 603 37,000  Level Chicago Center
02:32PM 40.5794 -85.6939 102° East 522 601 37,000  Level Chicago Center
02:33PM 40.5431 -85.4736 102° East 516 594 37,000  Level Chicago Center
02:34PM 40.5111 -85.2900 103° East 514 592 37,000  Level Chicago Center
02:35PM 40.4792 -85.1064 103° East 517 595 37,000  Level Chicago Center
02:35PM 40.4703 -85.0686 107° East 514 592 37,000 -120 Level Indianapolis Center
02:36PM 40.4375 -84.8789 103° East 516 594 36,900  Descending Indianapolis Center
02:37PM 40.4072 -84.6939 102° East 515 593 37,000  Climbing Indianapolis Center
02:38PM 40.3858 -84.4736 97° East 517 595 37,000  Level Indianapolis Center
02:39PM 40.3689 -84.2844 97° East 518 596 37,000  Level Indianapolis Center
02:40PM 40.3539 -84.0947 96° East 518 596 37,000  Level Indianapolis Center
02:41PM 40.3361 -83.9056 97° East 518 596 37,000 -60 Level Indianapolis Center
02:42PM 40.3186 -83.7167 97° East 515 593 36,900  Descending Indianapolis Center
02:43PM 40.3019 -83.5275 97° East 515 593 37,000  Climbing Indianapolis Center
02:44PM 40.2842 -83.3389 97° East 515 593 36,900  Descending Indianapolis Center
02:45PM 40.2672 -83.1508 97° East 512 589 37,000  Climbing Indianapolis Center
02:46PM 40.2486 -82.9650 97° East 508 585 37,000 -60 Level Indianapolis Center
02:47PM 40.2214 -82.7839 101° East 502 578 36,900 -60 Descending Indianapolis Center
02:48PM 40.1789 -82.5806 105° East 494 568 36,900  Level Indianapolis Center
02:49PM 40.1408 -82.4061 106° East 494 568 37,000  Climbing Indianapolis Center
02:50PM 40.1042 -82.2336 105° East 489 563 37,000  Level Indianapolis Center
02:51PM 40.0664 -82.0603 106° East 491 565 37,000  Level Indianapolis Center
02:52PM 40.0275 -81.8878 106° East 491 565 37,000  Level Indianapolis Center
02:54PM 39.9886 -81.7147 106° East 494 568 37,000  Level Indianapolis Center
02:55PM 39.9483 -81.5383 107° East 499 574 37,000  Level Indianapolis Center
02:56PM 39.9100 -81.3650 106° East 501 577 37,000  Level Indianapolis Center
02:57PM 39.8697 -81.1914 107° East 500 575 37,000  Level Indianapolis Center
02:58PM 39.8214 -80.9831 107° East 500 575 37,000 -540 Level Indianapolis Center
02:59PM 39.7806 -80.8106 107° East 499 574 35,900 -1,080 Descending Indianapolis Center
03:00PM 39.7400 -80.6342 107° East 507 583 34,800 -960 Descending Indianapolis Center
03:00PM 39.7317 -80.5886 103° East 497 572 34,600 -900 Descending Cleveland Center
03:02PM 39.6567 -80.2769 107° East 520 598 33,000 -780 Descending Indianapolis Center
03:03PM 39.6144 -80.0967 107° East 521 600 32,600 -1,020 Descending Indianapolis Center
03:04PM 39.5731 -79.9228 107° East 507 583 31,000 -1,560 Descending Indianapolis Center
03:05PM 39.5347 -79.7194 104° East 493 567 29,200 -1,740 Descending Washington Center
03:06PM 39.5067 -79.5617 103° East 474 545 27,200 -1,140 Descending Washington Center
03:07PM 39.4783 -79.4014 103° East 462 532 27,000 -420 Descending Washington Center
03:08PM 39.4444 -79.2222 104° East 457 526 26,400 -1,500 Descending Washington Center
03:09PM 39.4156 -79.0678 104° East 457 526 24,100 -2,640 Descending Washington Center
03:10PM 39.3889 -78.9108 102° East 452 520 21,300 -2,880 Descending Washington Center
03:11PM 39.3614 -78.7619 103° East 447 514 18,500 -2,760 Descending Washington Center
03:12PM 39.3358 -78.6211 103° East 425 489 15,800 -2,580 Descending Washington Center
03:13PM 39.3103 -78.4833 103° East 405 466 13,400 -2,100 Descending Washington Center
03:14PM 39.2800 -78.3533 107° East 388 447 11,700 -1,260 Descending Washington Center
03:15PM 39.2239 -78.2439 123° Southeast 373 429 10,900 -1,140 Descending Washington Center
03:16PM 39.1719 -78.1458 124° Southeast 352 405 9,500 -1,680 Descending Washington Center
03:17PM 39.1197 -78.0503 125° Southeast 337 388 7,700 -1,320 Descending Washington Center
03:18PM 39.0694 -77.9550 124° Southeast 331 381 6,900 -780 Descending Washington Center
03:19PM 39.0211 -77.8625 124° Southeast 326 375 6,200 -480 Descending Washington Center
03:20PM 38.9769 -77.7811 125° Southeast 313 360 6,000 -120 Descending Washington Center
03:21PM 38.9561 -77.6658 103° East 303 349 6,000  Level Washington Center
03:22PM 38.9833 -77.6000 62° Northeast 286 329 6,000 -180 Level Potomac TRACON
03:23PM 39.0333 -77.5833 15° North 205 236 5,700 -540 Descending Potomac TRACON
03:24PM 39.1000 -77.5833 360° North 194 223 5,000 -720 Descending Potomac TRACON
03:25PM 39.1500 -77.5667 14° North 195 224 4,300 -900 Descending Potomac TRACON
03:26PM 39.1833 -77.5167 49° Northeast 223 257 3,200 -660 Descending Potomac TRACON
03:27PM 39.1667 -77.4500 108° East 213 245 3,000 -240 Descending Potomac TRACON